createdAt,value
2023-04-12T00:01:22.370Z,8.49
2023-04-12T00:03:27.416Z,8.44
2023-04-12T00:05:32.144Z,8.38
2023-04-12T00:07:38.540Z,8.33
2023-04-12T00:09:43.435Z,8.32
2023-04-12T00:11:51.013Z,8.37
2023-04-12T00:13:56.279Z,8.38
2023-04-12T00:16:01.495Z,8.44
2023-04-12T00:18:06.681Z,8.42
2023-04-12T00:20:13.965Z,8.39
2023-04-12T00:22:19.063Z,8.35
2023-04-12T00:24:23.925Z,8.34
2023-04-12T00:26:28.791Z,8.29
2023-04-12T00:28:36.322Z,8.27
2023-04-12T00:30:41.759Z,8.29
2023-04-12T00:32:46.717Z,8.21
2023-04-12T00:34:51.628Z,8.16
2023-04-12T00:36:58.784Z,8.15
2023-04-12T00:39:03.918Z,8.16
2023-04-12T00:41:09.639Z,8.18
2023-04-12T00:43:15.784Z,8.20
2023-04-12T00:45:23.956Z,8.22
2023-04-12T00:47:29.767Z,8.25
2023-04-12T00:49:36.408Z,8.24
2023-04-12T00:51:41.444Z,8.28
2023-04-12T00:53:46.625Z,8.22
2023-04-12T00:55:52.678Z,8.19
2023-04-12T00:58:00.064Z,8.18
2023-04-12T01:00:05.100Z,8.17
2023-04-12T01:02:12.809Z,8.19
2023-04-12T01:04:18.775Z,8.18
2023-04-12T01:06:35.497Z,8.15
2023-04-12T01:08:53.848Z,8.18
2023-04-12T01:11:08.377Z,8.17
2023-04-12T01:13:26.954Z,8.23
2023-04-12T01:15:37.355Z,8.24
2023-04-12T01:17:50.621Z,8.32
2023-04-12T01:20:13.805Z,8.33
2023-04-12T01:22:32.998Z,8.35
2023-04-12T01:24:49.360Z,8.32
2023-04-12T01:26:55.043Z,8.30
2023-04-12T01:29:07.617Z,8.32
2023-04-12T01:31:14.762Z,8.34
2023-04-12T01:33:21.345Z,8.29
2023-04-12T01:35:34.925Z,8.35
2023-04-12T01:37:40.524Z,8.37
2023-04-12T01:39:45.669Z,8.37
2023-04-12T01:41:50.731Z,8.40
2023-04-12T01:43:55.862Z,8.38
2023-04-12T01:46:03.274Z,8.32
2023-04-12T01:48:12.613Z,8.29
2023-04-12T01:50:24.345Z,8.27
2023-04-12T01:52:34.042Z,8.28
2023-04-12T01:54:44.519Z,8.26
2023-04-12T01:56:53.224Z,8.24
2023-04-12T01:59:00.185Z,8.30
2023-04-12T02:01:09.953Z,8.39
2023-04-12T02:03:17.881Z,8.43
2023-04-12T02:05:23.386Z,8.41
2023-04-12T02:07:31.093Z,8.43
2023-04-12T02:09:39.900Z,8.39
2023-04-12T02:11:44.767Z,8.31
2023-04-12T02:13:49.658Z,8.29
2023-04-12T02:15:54.716Z,8.29
2023-04-12T02:18:03.509Z,8.32
2023-04-12T02:20:12.145Z,8.35
2023-04-12T02:22:17.428Z,8.41
2023-04-12T02:24:22.474Z,8.44
2023-04-12T02:26:27.773Z,8.43
2023-04-12T02:28:34.839Z,8.47
2023-04-12T02:30:41.896Z,8.51
2023-04-12T02:32:48.591Z,8.57
2023-04-12T02:35:03.939Z,8.62
2023-04-12T02:37:09.798Z,8.57
2023-04-12T02:39:14.809Z,8.56
2023-04-12T02:41:20.850Z,8.54
2023-04-12T02:43:26.992Z,8.50
2023-04-12T02:45:37.974Z,8.50
2023-04-12T02:47:43.700Z,8.50
2023-04-12T02:49:49.263Z,8.46
2023-04-12T02:51:59.044Z,8.46
2023-04-12T02:54:11.414Z,8.47
2023-04-12T02:56:30.033Z,8.48
2023-04-12T02:58:44.337Z,8.49
2023-04-12T03:00:53.328Z,8.51
2023-04-12T03:03:04.525Z,8.55
2023-04-12T03:05:11.068Z,8.56
2023-04-12T03:07:24.125Z,8.59
2023-04-12T03:09:32.426Z,8.58
2023-04-12T03:11:37.455Z,8.58
2023-04-12T03:13:44.113Z,8.58
2023-04-12T03:15:50.338Z,8.60
2023-04-12T03:17:56.236Z,8.63
2023-04-12T03:20:08.198Z,8.63
2023-04-12T03:22:13.869Z,8.61
2023-04-12T03:24:25.983Z,8.62
2023-04-12T03:26:31.402Z,8.61
2023-04-12T03:28:39.741Z,8.55
2023-04-12T03:30:44.844Z,8.53
2023-04-12T03:32:50.543Z,8.51
2023-04-12T03:34:55.916Z,8.46
2023-04-12T03:37:04.089Z,8.44
2023-04-12T03:39:18.651Z,8.42
2023-04-12T03:41:31.473Z,8.46
2023-04-12T03:43:39.729Z,8.48
2023-04-12T03:45:54.075Z,8.49
2023-04-12T03:47:59.469Z,8.51
2023-04-12T03:50:12.038Z,8.56
2023-04-12T03:52:20.897Z,8.58
2023-04-12T03:54:25.991Z,8.54
2023-04-12T03:56:47.096Z,8.56
2023-04-12T03:59:00.495Z,8.55
2023-04-12T04:01:07.022Z,8.57
2023-04-12T04:03:15.571Z,8.64
2023-04-12T04:05:31.646Z,8.69
2023-04-12T04:07:37.382Z,8.72
2023-04-12T04:09:42.538Z,8.75
2023-04-12T04:11:51.856Z,8.78
2023-04-12T04:13:59.224Z,8.80
2023-04-12T04:16:07.205Z,8.81
2023-04-12T04:18:12.296Z,8.79
2023-04-12T04:20:18.233Z,8.80
2023-04-12T04:22:29.620Z,8.80
2023-04-12T04:24:39.241Z,8.81
2023-04-12T04:26:45.828Z,8.77
2023-04-12T04:29:05.214Z,8.78
2023-04-12T04:31:17.933Z,8.81
2023-04-12T04:33:26.901Z,8.86
2023-04-12T04:35:34.483Z,8.86
2023-04-12T04:37:56.271Z,8.87
2023-04-12T04:40:08.455Z,8.88
2023-04-12T04:42:16.038Z,8.87
2023-04-12T04:44:41.043Z,8.86
2023-04-12T04:46:48.958Z,8.88
2023-04-12T04:48:55.419Z,8.88
2023-04-12T04:51:00.364Z,8.86
2023-04-12T04:53:05.245Z,8.89
2023-04-12T04:55:13.314Z,8.90
2023-04-12T04:57:22.661Z,8.93
2023-04-12T04:59:27.724Z,8.93
2023-04-12T05:01:47.350Z,8.94
2023-04-12T05:03:56.081Z,8.95
2023-04-12T05:06:04.714Z,9.01
2023-04-12T05:08:11.322Z,9.06
2023-04-12T05:10:16.465Z,9.08
2023-04-12T05:12:22.016Z,9.12
2023-04-12T05:14:41.654Z,9.05
2023-04-12T05:16:53.409Z,9.11
2023-04-12T05:18:58.507Z,9.09
2023-04-12T05:21:05.690Z,9.10
2023-04-12T05:23:10.866Z,9.03
2023-04-12T05:25:16.129Z,9.01
2023-04-12T05:27:29.758Z,8.98
2023-04-12T05:29:36.139Z,9.01
2023-04-12T05:31:43.944Z,9.01
2023-04-12T05:33:58.829Z,9.03
2023-04-12T05:36:10.092Z,9.06
2023-04-12T05:38:15.122Z,9.06
2023-04-12T05:40:22.704Z,9.15
2023-04-12T05:42:30.276Z,9.20
2023-04-12T05:44:38.817Z,9.23
2023-04-12T05:46:47.814Z,9.30
2023-04-12T05:48:53.904Z,9.34
2023-04-12T05:51:01.386Z,9.40
2023-04-12T05:53:06.423Z,9.45
2023-04-12T05:55:12.812Z,9.49
2023-04-12T05:57:20.199Z,9.55
2023-04-12T05:59:26.930Z,9.59
2023-04-12T06:01:33.576Z,9.62
2023-04-12T06:03:41.849Z,9.60
2023-04-12T06:05:48.382Z,9.59
2023-04-12T06:07:55.814Z,9.61
2023-04-12T06:10:00.749Z,9.58
2023-04-12T06:12:05.753Z,9.57
2023-04-12T06:14:14.476Z,9.62
2023-04-12T06:16:20.003Z,9.67
2023-04-12T06:18:25.038Z,9.66
2023-04-12T06:20:30.198Z,9.67
2023-04-12T06:22:35.395Z,9.58
2023-04-12T06:24:42.929Z,9.59
2023-04-12T06:26:49.493Z,9.57
2023-04-12T06:28:54.698Z,9.50
2023-04-12T06:30:59.926Z,9.60
2023-04-12T06:33:07.319Z,9.66
2023-04-12T06:35:12.684Z,9.69
2023-04-12T06:37:17.414Z,9.70
2023-04-12T06:39:22.306Z,9.68
2023-04-12T06:41:29.842Z,9.66
2023-04-12T06:43:39.739Z,9.67
2023-04-12T06:45:44.713Z,9.63
2023-04-12T06:47:50.283Z,9.63
2023-04-12T06:49:58.221Z,9.63
2023-04-12T06:52:03.298Z,9.62
2023-04-12T06:54:08.285Z,9.67
2023-04-12T06:56:13.169Z,9.67
2023-04-12T06:58:21.062Z,9.68
2023-04-12T07:00:26.802Z,9.59
2023-04-12T07:02:31.972Z,9.51
2023-04-12T07:04:37.591Z,9.50
2023-04-12T07:06:42.798Z,9.47
2023-04-12T07:08:47.441Z,9.48
2023-04-12T07:10:56.581Z,9.54
2023-04-12T07:13:03.817Z,9.48
2023-04-12T07:15:12.328Z,9.53
2023-04-12T07:17:17.420Z,9.48
2023-04-12T07:19:22.269Z,9.50
2023-04-12T07:21:27.844Z,9.53
2023-04-12T07:23:32.797Z,9.48
2023-04-12T07:25:40.611Z,9.50
2023-04-12T07:27:45.555Z,9.51
2023-04-12T07:29:50.506Z,9.48
2023-04-12T07:31:57.940Z,9.51
2023-04-12T07:34:03.075Z,9.48
2023-04-12T07:36:09.366Z,9.46
2023-04-12T07:38:16.561Z,9.52
2023-04-12T07:40:25.011Z,9.38
2023-04-12T07:42:29.903Z,9.37
2023-04-12T07:44:38.507Z,9.41
2023-04-12T07:46:44.066Z,9.41
2023-04-12T07:48:51.609Z,9.38
2023-04-12T07:50:56.690Z,9.45
2023-04-12T07:53:21.325Z,9.46
2023-04-12T07:55:26.526Z,9.48
2023-04-12T07:57:33.565Z,9.41
2023-04-12T07:59:39.062Z,9.46
2023-04-12T08:01:43.937Z,9.49
2023-04-12T08:03:51.931Z,9.60
2023-04-12T08:05:57.169Z,9.70
2023-04-12T08:08:01.845Z,9.73
2023-04-12T08:10:07.201Z,9.87
2023-04-12T08:12:12.111Z,10.01
2023-04-12T08:14:16.984Z,10.14
2023-04-12T08:16:22.171Z,10.28
2023-04-12T08:18:28.429Z,10.36
2023-04-12T08:20:35.974Z,10.30
2023-04-12T08:22:41.244Z,10.34
2023-04-12T08:24:46.566Z,10.38
2023-04-12T08:26:51.758Z,10.43
2023-04-12T08:28:57.657Z,10.40
2023-04-12T08:31:02.599Z,10.36
2023-04-12T08:33:07.624Z,10.42
2023-04-12T08:35:12.828Z,10.47
2023-04-12T08:37:20.089Z,10.48
2023-04-12T08:39:25.000Z,10.46
2023-04-12T08:41:29.989Z,10.49
2023-04-12T08:43:36.568Z,10.47
2023-04-12T08:45:41.836Z,10.51
2023-04-12T08:47:47.695Z,10.55
2023-04-12T08:49:52.805Z,10.60
2023-04-12T08:51:59.209Z,10.60
2023-04-12T08:54:07.852Z,10.52
2023-04-12T08:56:14.103Z,10.55
2023-04-12T08:58:19.178Z,10.59
2023-04-12T09:00:24.931Z,10.70
2023-04-12T09:02:30.347Z,10.76
2023-04-12T09:04:35.405Z,10.74
2023-04-12T09:06:41.743Z,10.75
2023-04-12T09:08:57.522Z,10.75
2023-04-12T09:11:04.775Z,10.62
2023-04-12T09:13:10.101Z,10.66
2023-04-12T09:15:18.556Z,10.61
2023-04-12T09:17:27.070Z,10.62
2023-04-12T09:19:36.135Z,10.56
2023-04-12T09:21:55.304Z,10.52
2023-04-12T09:24:12.363Z,10.50
2023-04-12T09:26:32.489Z,10.53
2023-04-12T09:28:37.353Z,10.50
2023-04-12T09:30:45.134Z,10.49
2023-04-12T09:32:51.326Z,10.45
2023-04-12T09:35:01.469Z,10.50
2023-04-12T09:37:16.426Z,10.52
2023-04-12T09:39:21.295Z,10.50
2023-04-12T09:41:27.589Z,10.47
2023-04-12T09:43:44.553Z,10.46
2023-04-12T09:45:49.500Z,10.46
2023-04-12T09:47:55.274Z,10.48
2023-04-12T09:50:00.606Z,10.51
2023-04-12T09:52:05.367Z,10.45
2023-04-12T09:54:12.931Z,10.49
2023-04-12T09:56:17.989Z,10.56
2023-04-12T09:58:23.756Z,10.61
2023-04-12T10:00:34.555Z,10.60
2023-04-12T10:02:41.604Z,10.55
2023-04-12T10:04:47.487Z,10.50
2023-04-12T10:06:52.577Z,10.53
2023-04-12T10:08:59.291Z,10.48
2023-04-12T10:11:04.423Z,10.54
2023-04-12T10:13:10.441Z,10.70
2023-04-12T10:15:18.000Z,10.86
2023-04-12T10:17:28.487Z,11.02
2023-04-12T10:19:34.800Z,11.05
2023-04-12T10:21:39.897Z,11.12
2023-04-12T10:23:47.493Z,11.27
2023-04-12T10:25:55.611Z,11.48
2023-04-12T10:28:00.768Z,11.55
2023-04-12T10:30:27.296Z,11.54
2023-04-12T10:32:35.532Z,11.54
2023-04-12T10:34:45.477Z,11.58
2023-04-12T10:36:57.752Z,11.59
2023-04-12T10:39:12.472Z,11.49
2023-04-12T10:41:19.895Z,11.49
2023-04-12T10:43:27.956Z,11.45
2023-04-12T10:45:40.215Z,11.52
2023-04-12T10:48:04.198Z,11.68
2023-04-12T10:50:26.733Z,11.84
2023-04-12T10:52:39.406Z,11.95
2023-04-12T10:54:44.657Z,12.02
2023-04-12T10:56:51.514Z,12.14
2023-04-12T10:59:09.841Z,12.26
2023-04-12T11:01:23.695Z,12.32
2023-04-12T11:03:31.698Z,12.26
2023-04-12T11:06:16.153Z,12.27
2023-04-12T11:08:49.388Z,11.94
2023-04-12T11:11:04.859Z,11.94
2023-04-12T11:13:14.357Z,11.96
2023-04-12T11:15:19.828Z,12.05
2023-04-12T11:17:30.912Z,12.11
2023-04-12T11:19:40.753Z,12.16
2023-04-12T11:21:46.822Z,12.15
2023-04-12T11:23:52.048Z,12.08
2023-04-12T11:25:57.523Z,11.95
2023-04-12T11:28:11.066Z,11.86
2023-04-12T11:30:23.830Z,11.91
2023-04-12T11:32:29.995Z,11.97
2023-04-12T11:34:38.981Z,12.00
2023-04-12T11:36:45.351Z,11.97
2023-04-12T11:38:50.464Z,11.98
2023-04-12T11:40:55.703Z,12.09
2023-04-12T11:43:00.645Z,12.12
2023-04-12T11:45:13.985Z,12.30
2023-04-12T11:47:24.136Z,12.46
2023-04-12T11:49:29.224Z,12.58
2023-04-12T11:51:36.841Z,12.59
2023-04-12T11:53:41.963Z,12.42
2023-04-12T11:55:51.154Z,12.25
2023-04-12T11:57:57.215Z,12.26
2023-04-12T12:00:06.244Z,12.34
2023-04-12T12:02:23.608Z,12.30
2023-04-12T12:04:30.832Z,12.24
2023-04-12T12:06:39.160Z,12.27
2023-04-12T12:08:44.775Z,12.21
2023-04-12T12:11:04.560Z,12.21
2023-04-12T12:13:14.321Z,12.21
2023-04-12T12:15:19.485Z,12.19
2023-04-12T12:17:24.205Z,12.23
2023-04-12T12:19:31.879Z,12.22
2023-04-12T12:21:39.359Z,12.18
2023-04-12T12:23:46.344Z,12.19
2023-04-12T12:25:51.602Z,12.18
2023-04-12T12:28:00.458Z,12.24
2023-04-12T12:30:06.577Z,12.33
2023-04-12T12:32:16.112Z,12.34
2023-04-12T12:34:22.351Z,12.36
2023-04-12T12:36:34.393Z,12.37
2023-04-12T12:38:43.291Z,12.40
2023-04-12T12:40:48.360Z,12.45
2023-04-12T12:42:55.157Z,12.48
2023-04-12T12:45:00.188Z,12.54
2023-04-12T12:47:14.165Z,12.60
2023-04-12T12:49:19.818Z,12.66
2023-04-12T12:51:24.879Z,12.67
2023-04-12T12:53:29.782Z,12.70
2023-04-12T12:55:37.452Z,12.74
2023-04-12T12:57:42.792Z,12.73
2023-04-12T12:59:47.455Z,12.68
2023-04-12T13:01:52.414Z,12.65
2023-04-12T13:03:59.237Z,12.68
2023-04-12T13:06:04.252Z,12.77
2023-04-12T13:08:09.179Z,12.88
2023-04-12T13:10:14.702Z,13.04
2023-04-12T13:12:22.235Z,13.22
2023-04-12T13:14:27.574Z,13.41
2023-04-12T13:16:32.542Z,13.61
2023-04-12T13:18:37.735Z,13.73
2023-04-12T13:20:42.804Z,13.73
2023-04-12T13:22:47.963Z,13.77
2023-04-12T13:24:53.358Z,13.75
2023-04-12T13:26:58.483Z,13.70
2023-04-12T13:29:06.017Z,13.62
2023-04-12T13:31:11.009Z,13.66
2023-04-12T13:33:19.983Z,13.70
2023-04-12T13:35:26.704Z,13.62
2023-04-12T13:37:31.640Z,13.65
2023-04-12T13:39:37.139Z,13.73
2023-04-12T13:41:42.057Z,13.81
2023-04-12T13:43:47.043Z,13.93
2023-04-12T13:45:54.723Z,14.00
2023-04-12T13:47:59.882Z,14.15
2023-04-12T13:50:04.925Z,14.22
2023-04-12T13:52:10.392Z,14.20
2023-04-12T13:54:15.814Z,14.19
2023-04-12T13:56:20.990Z,14.10
2023-04-12T13:58:26.180Z,13.99
2023-04-12T14:00:30.868Z,13.89
2023-04-12T14:02:38.509Z,13.85
2023-04-12T14:04:55.272Z,13.90
2023-04-12T14:07:03.792Z,13.93
2023-04-12T14:09:09.090Z,13.87
2023-04-12T14:11:14.051Z,13.80
2023-04-12T14:13:19.127Z,13.79
2023-04-12T14:15:24.358Z,13.78
2023-04-12T14:17:32.755Z,13.58
2023-04-12T14:19:40.732Z,13.53
2023-04-12T14:21:45.836Z,13.55
2023-04-12T14:23:51.023Z,13.48
2023-04-12T14:25:56.347Z,13.55
2023-04-12T14:28:01.661Z,13.61
2023-04-12T14:30:07.904Z,13.73
2023-04-12T14:32:12.836Z,13.80
2023-04-12T14:34:17.829Z,13.81
2023-04-12T14:36:27.907Z,13.79
2023-04-12T14:38:32.859Z,13.76
2023-04-12T14:40:37.783Z,13.72
2023-04-12T14:42:42.845Z,13.78
2023-04-12T14:44:47.849Z,13.77
2023-04-12T14:46:52.887Z,13.90
2023-04-12T14:49:01.287Z,13.99
2023-04-12T14:51:06.851Z,14.15
2023-04-12T14:53:16.508Z,14.37
2023-04-12T14:55:21.702Z,14.50
2023-04-12T14:57:26.765Z,14.84
2023-04-12T14:59:31.770Z,14.90
2023-04-12T15:01:38.041Z,15.00
2023-04-12T15:03:45.324Z,15.03
2023-04-12T15:05:50.267Z,15.02
2023-04-12T15:07:55.170Z,15.04
2023-04-12T15:10:04.285Z,15.00
2023-04-12T15:12:10.955Z,15.01
2023-04-12T15:14:18.095Z,15.10
2023-04-12T15:16:23.544Z,15.24
2023-04-12T15:18:28.528Z,15.38
2023-04-12T15:20:33.398Z,15.41
2023-04-12T15:22:38.639Z,15.43
2023-04-12T15:24:43.224Z,15.35
2023-04-12T15:26:52.868Z,15.37
2023-04-12T15:28:58.064Z,15.43
2023-04-12T15:31:02.956Z,15.48
2023-04-12T15:33:07.834Z,15.48
2023-04-12T15:37:21.769Z,15.49
2023-04-12T15:39:26.850Z,15.45
2023-04-12T15:41:38.039Z,15.43
2023-04-12T15:43:49.481Z,15.49
2023-04-12T15:45:55.603Z,15.49
2023-04-12T15:48:00.896Z,15.56
2023-04-12T15:50:06.031Z,15.60
2023-04-12T15:52:10.870Z,15.51
2023-04-12T15:54:16.333Z,15.47
2023-04-12T15:56:24.548Z,15.50
2023-04-12T15:58:29.970Z,15.49
2023-04-12T16:00:38.836Z,15.47
2023-04-12T16:02:53.707Z,15.46
2023-04-12T16:04:58.944Z,15.39
2023-04-12T16:07:04.947Z,15.42
2023-04-12T16:09:10.091Z,15.44
2023-04-12T16:11:15.043Z,15.34
2023-04-12T16:13:20.774Z,15.26
2023-04-12T16:15:25.834Z,15.21
2023-04-12T16:17:34.055Z,15.09
2023-04-12T16:19:39.023Z,15.07
2023-04-12T16:21:45.036Z,14.99
2023-04-12T16:23:51.057Z,14.92
2023-04-12T16:25:56.494Z,14.92
2023-04-12T16:28:02.661Z,14.93
2023-04-12T16:30:10.788Z,14.92
2023-04-12T16:32:15.916Z,14.90
2023-04-12T16:34:23.505Z,14.86
2023-04-12T16:36:31.810Z,14.81
2023-04-12T16:38:36.983Z,14.77
2023-04-12T16:40:41.787Z,14.70
2023-04-12T16:42:47.578Z,14.67
2023-04-12T16:44:52.508Z,14.67
2023-04-12T16:46:57.488Z,14.67
2023-04-12T16:49:03.934Z,14.66
2023-04-12T16:51:11.808Z,14.68
2023-04-12T16:53:17.691Z,14.64
2023-04-12T16:55:22.950Z,14.59
2023-04-12T16:57:27.562Z,14.40
2023-04-12T16:59:34.696Z,14.32
2023-04-12T17:01:39.582Z,14.19
2023-04-12T17:03:44.578Z,14.15
2023-04-12T17:05:49.573Z,13.98
2023-04-12T17:07:57.663Z,13.86
2023-04-12T17:10:02.482Z,13.67
2023-04-12T17:12:09.611Z,13.57
2023-04-12T17:14:15.086Z,13.40
2023-04-12T17:16:20.075Z,13.25
2023-04-12T17:18:24.989Z,12.86
2023-04-12T17:20:30.572Z,12.66
2023-04-12T17:22:35.645Z,12.57
2023-04-12T17:24:43.242Z,12.52
2023-04-12T17:26:48.671Z,12.45
2023-04-12T17:28:54.821Z,12.45
2023-04-12T17:30:59.964Z,12.36
2023-04-12T17:33:05.265Z,12.09
2023-04-12T17:35:11.569Z,12.08
2023-04-12T17:37:16.932Z,11.99
2023-04-12T17:39:21.921Z,11.95
2023-04-12T17:41:29.936Z,11.93
2023-04-12T17:43:34.918Z,11.99
2023-04-12T17:45:39.713Z,11.89
2023-04-12T17:47:45.308Z,11.93
2023-04-12T17:49:50.252Z,11.88
2023-04-12T17:51:55.122Z,11.90
2023-04-12T17:54:00.708Z,11.82
2023-04-12T17:56:06.024Z,11.73
2023-04-12T17:58:14.319Z,11.66
2023-04-12T18:00:20.619Z,11.62
2023-04-12T18:02:25.889Z,11.58
2023-04-12T18:04:31.249Z,11.56
2023-04-12T18:06:36.259Z,11.46
2023-04-12T18:08:41.521Z,11.44
2023-04-12T18:10:46.753Z,11.41
2023-04-12T18:12:51.526Z,11.36
2023-04-12T18:14:59.025Z,11.44
2023-04-12T18:17:03.943Z,11.52
2023-04-12T18:19:25.097Z,11.66
2023-04-12T18:21:29.955Z,11.71
2023-04-12T18:23:43.333Z,11.72
2023-04-12T18:25:59.617Z,11.79
2023-04-12T18:28:04.967Z,11.85
2023-04-12T18:30:14.833Z,11.85
2023-04-12T18:32:25.507Z,11.90
2023-04-12T18:34:30.586Z,11.93
2023-04-12T18:36:37.114Z,11.88
2023-04-12T18:38:42.100Z,11.87
2023-04-12T18:40:47.037Z,11.82
2023-04-12T18:42:52.005Z,11.82
2023-04-12T18:44:58.450Z,11.84
2023-04-12T18:47:06.457Z,11.84
2023-04-12T18:49:12.094Z,11.78
2023-04-12T18:51:17.369Z,11.68
2023-04-12T18:53:22.056Z,11.55
2023-04-12T18:55:27.094Z,11.47
2023-04-12T18:57:32.039Z,11.38
2023-04-12T18:59:36.948Z,11.51
2023-04-12T19:01:41.972Z,11.54
2023-04-12T19:03:50.011Z,11.59
2023-04-12T19:05:56.927Z,11.60
2023-04-12T19:08:03.658Z,11.40
2023-04-12T19:10:09.799Z,11.42
2023-04-12T19:12:14.664Z,11.33
2023-04-12T19:14:19.659Z,11.30
2023-04-12T19:16:24.830Z,11.36
2023-04-12T19:18:31.682Z,11.41
2023-04-12T19:20:39.355Z,11.42
2023-04-12T19:22:44.287Z,11.22
2023-04-12T19:24:50.038Z,11.33
2023-04-12T19:26:54.947Z,11.36
2023-04-12T19:28:59.906Z,11.43
2023-04-12T19:31:10.494Z,11.39
2023-04-12T19:33:16.183Z,11.48
2023-04-12T19:35:21.063Z,11.48
2023-04-12T19:37:34.117Z,11.53
2023-04-12T19:39:40.828Z,11.51
2023-04-12T19:41:48.594Z,11.55
2023-04-12T19:43:54.669Z,11.60
2023-04-12T19:46:01.555Z,11.63
2023-04-12T19:48:06.782Z,11.67
2023-04-12T19:50:11.857Z,11.67
2023-04-12T19:52:20.274Z,11.70
2023-04-12T19:54:27.746Z,11.69
2023-04-12T19:56:32.983Z,11.68
2023-04-12T19:58:37.689Z,11.68
2023-04-12T20:00:42.822Z,11.69
2023-04-12T20:02:47.784Z,11.72
2023-04-12T20:04:53.603Z,11.66
2023-04-12T20:06:58.463Z,11.67
2023-04-12T20:09:03.517Z,11.70
2023-04-12T20:11:10.987Z,11.69
2023-04-12T20:13:16.792Z,11.70
2023-04-12T20:15:21.681Z,11.71
2023-04-12T20:17:26.716Z,11.73
2023-04-12T20:19:31.998Z,11.74
2023-04-12T20:21:37.292Z,11.73
2023-04-12T20:23:42.484Z,11.74
2023-04-12T20:25:49.185Z,11.73
2023-04-12T20:27:56.719Z,11.71
2023-04-12T20:30:01.857Z,11.69
2023-04-12T20:32:08.834Z,11.70
2023-04-12T20:34:17.928Z,11.68
2023-04-12T20:36:26.409Z,11.64
2023-04-12T20:38:31.721Z,11.62
2023-04-12T20:40:36.751Z,11.59
2023-04-12T20:42:42.675Z,11.52
2023-04-12T20:44:50.586Z,11.47
2023-04-12T20:46:55.503Z,11.43
2023-04-12T20:49:00.596Z,11.40
2023-04-12T20:51:05.301Z,11.34
2023-04-12T20:53:13.219Z,11.29
2023-04-12T20:55:18.226Z,11.26
2023-04-12T20:57:23.962Z,11.26
2023-04-12T20:59:30.511Z,11.26
2023-04-12T21:01:38.024Z,11.26
2023-04-12T21:03:43.735Z,11.26
2023-04-12T21:05:50.634Z,11.29
2023-04-12T21:07:55.564Z,11.31
2023-04-12T21:10:01.944Z,11.31
2023-04-12T21:12:07.376Z,11.27
2023-04-12T21:14:13.052Z,11.22
2023-04-12T21:16:17.982Z,11.22
2023-04-12T21:18:25.542Z,11.19
2023-04-12T21:20:30.713Z,11.21
2023-04-12T21:22:35.668Z,11.21
2023-04-12T21:24:41.014Z,11.22
2023-04-12T21:26:46.243Z,11.21
2023-04-12T21:28:51.184Z,11.21
2023-04-12T21:30:58.417Z,11.22
2023-04-12T21:33:04.563Z,11.23
2023-04-12T21:35:13.218Z,11.24
2023-04-12T21:37:18.236Z,11.23
2023-04-12T21:39:23.081Z,11.22
2023-04-12T21:41:29.825Z,11.25
2023-04-12T21:43:34.686Z,11.25
2023-04-12T21:45:39.931Z,11.25
2023-04-12T21:47:45.215Z,11.19
2023-04-12T21:49:50.220Z,11.16
2023-04-12T21:51:59.351Z,11.14
2023-04-12T21:54:04.476Z,11.12
2023-04-12T21:56:10.494Z,11.10
2023-04-12T21:58:15.993Z,11.10
2023-04-12T22:00:20.620Z,11.07
2023-04-12T22:02:25.654Z,11.07
2023-04-12T22:04:31.835Z,11.03
2023-04-12T22:06:37.148Z,11.03
2023-04-12T22:08:44.679Z,10.98
2023-04-12T22:10:49.637Z,10.97
2023-04-12T22:12:54.502Z,10.97
2023-04-12T22:15:00.140Z,10.96
2023-04-12T22:17:06.271Z,10.96
2023-04-12T22:19:11.258Z,10.92
2023-04-12T22:21:16.763Z,10.90
2023-04-12T22:23:21.625Z,10.91
2023-04-12T22:25:29.758Z,10.88
2023-04-12T22:27:35.347Z,10.87
2023-04-12T22:29:40.727Z,10.81
2023-04-12T22:31:45.695Z,10.77
2023-04-12T22:33:55.183Z,10.74
2023-04-12T22:36:02.273Z,10.72
2023-04-12T22:38:07.173Z,10.67
2023-04-12T22:40:14.345Z,10.63
2023-04-12T22:42:26.115Z,10.53
2023-04-12T22:44:38.541Z,10.54
2023-04-12T22:46:44.027Z,10.54
2023-04-12T22:48:49.414Z,10.49
2023-04-12T22:50:54.671Z,10.35
2023-04-12T22:52:59.590Z,10.34
2023-04-12T22:55:04.652Z,10.33
2023-04-12T22:57:09.623Z,10.24
2023-04-12T22:59:17.753Z,10.19
2023-04-12T23:01:22.758Z,10.22
2023-04-12T23:03:28.986Z,10.35
2023-04-12T23:05:35.130Z,10.32
2023-04-12T23:07:41.689Z,10.23
2023-04-12T23:09:48.034Z,10.22
2023-04-12T23:11:53.844Z,10.16
2023-04-12T23:13:59.725Z,10.25
2023-04-12T23:16:10.035Z,10.28
2023-04-12T23:18:15.005Z,10.32
2023-04-12T23:20:20.600Z,10.28
2023-04-12T23:22:55.816Z,10.20
2023-04-12T23:25:02.413Z,10.16
2023-04-12T23:27:08.169Z,10.18
2023-04-12T23:29:13.092Z,10.10
2023-04-12T23:31:21.216Z,10.15
2023-04-12T23:33:26.250Z,9.94
2023-04-12T23:35:31.141Z,9.92
2023-04-12T23:37:36.217Z,9.97
2023-04-12T23:39:41.802Z,9.86
2023-04-12T23:41:47.909Z,9.86
2023-04-12T23:43:54.329Z,9.90
2023-04-12T23:46:00.164Z,9.88
2023-04-12T23:48:08.494Z,9.89
2023-04-12T23:50:13.872Z,9.91
2023-04-12T23:52:19.652Z,9.83
2023-04-12T23:54:24.544Z,9.91
2023-04-12T23:56:29.905Z,9.89
2023-04-12T23:58:35.235Z,9.95
